.
WxDataArchive / Data Records for 2014-10-27
2014-10-26 October 2014 2014-10-28

Data Records for Monday, 27 October 2014

Time	Temp	Chill	HIndex	Humid	Dewpt	 Wind 	HiWind	WindDir	Rain 	Barom
-----	----	-----	------	-----	-----	------	------	-------	-----	-----
00:00	41.6	41.6	41.6	80	35.9	0	0	---	0.00	29.930 
00:05	41.6	41.6	41.6	80	35.9	0	0	---	0.00	29.930 
00:10	41.6	41.6	41.6	80	35.9	0	0	---	0.00	29.930 
00:15	41.5	41.5	41.5	80	35.8	0	0	---	0.00	29.929 
00:20	41.5	41.5	41.5	80	35.8	0	0	---	0.00	29.929 
00:25	41.5	41.5	41.5	80	35.8	0	0	---	0.00	29.929 
00:30	41.3	41.3	41.3	80	35.6	0	0	---	0.00	29.927 
00:35	41.3	41.3	41.3	81	35.9	0	0	---	0.00	29.927 
00:40	41.3	41.3	41.3	81	35.9	0	0	---	0.00	29.927 
00:45	41.3	41.3	41.3	81	35.9	0	0	---	0.00	29.923 
00:50	41.3	41.3	41.3	81	35.9	0	0	---	0.00	29.923 
00:55	41.3	41.3	41.3	81	35.9	0	0	---	0.00	29.923 
01:00	41.3	41.3	41.3	82	36.2	0	0	---	0.00	29.917 
01:05	41.3	41.3	41.3	82	36.2	0	0	---	0.00	29.917 
01:10	41.2	41.2	41.2	82	36.1	0	0	---	0.00	29.917 
01:15	41.2	41.2	41.2	83	36.4	0	0	---	0.00	29.910 
01:20	41.1	41.1	41.1	83	36.3	0	0	---	0.00	29.910 
01:25	41.1	41.1	41.1	83	36.3	0	0	---	0.00	29.910 
01:30	41.1	41.1	41.1	84	36.6	0	0	---	0.00	29.911 
01:35	41.2	41.2	41.2	84	36.7	0	0	---	0.00	29.911 
01:40	41.5	41.5	41.5	84	37.0	0	0	---	0.00	29.911 
01:45	41.9	41.9	41.9	85	37.7	0	0	---	0.00	29.922 
01:50	42.3	42.3	42.3	85	38.1	0	0	---	0.00	29.922 
01:55	42.8	42.8	42.8	85	38.6	0	0	---	0.00	29.922 
02:00	43.2	43.2	43.2	84	38.7	0	0	---	0.00	29.925 
02:05	43.5	43.5	43.5	82	38.4	0	0	---	0.00	29.925 
02:10	43.8	43.8	43.8	81	38.4	0	0	---	0.00	29.925 
02:15	44.2	44.2	44.2	81	38.7	0	0	---	0.00	29.922 
02:20	44.3	44.3	44.3	81	38.8	0	0	---	0.00	29.922 
02:25	44.6	44.6	44.6	81	39.1	0	0	---	0.00	29.922 
02:30	44.9	44.9	44.9	81	39.4	0	0	---	0.00	29.922 
02:35	45.1	45.1	45.1	81	39.6	0	0	---	0.00	29.922 
02:40	45.2	45.2	45.2	81	39.7	0	0	---	0.00	29.922 
02:45	45.2	45.2	45.2	81	39.7	0	0	---	0.00	29.916 
02:50	45.4	45.4	45.4	81	39.9	0	0	---	0.00	29.916 
02:55	45.7	45.7	45.7	80	39.9	0	0	---	0.00	29.916 
03:00	45.8	45.8	45.8	78	39.3	0	0	---	0.00	29.914 
03:05	46.0	46.0	46.0	77	39.2	0	0	---	0.00	29.914 
03:10	46.1	46.1	46.1	77	39.3	0	0	---	0.00	29.914 
03:15	46.1	46.1	46.1	76	39.0	0	0	---	0.00	29.914 
03:20	46.2	46.2	46.2	76	39.1	0	0	---	0.00	29.914 
03:25	46.1	46.1	46.1	75	38.6	0	0	---	0.00	29.914 
03:30	46.1	46.1	46.1	75	38.6	0	0	---	0.00	29.908 
03:35	46.0	46.0	46.0	74	38.2	0	0	---	0.00	29.908 
03:40	45.8	45.8	45.8	74	38.0	0	0	---	0.00	29.908 
03:45	45.5	45.5	45.5	74	37.7	0	0	---	0.00	29.905 
03:50	45.2	45.2	45.2	75	37.8	0	0	---	0.00	29.905 
03:55	44.9	44.9	44.9	76	37.8	0	0	---	0.00	29.905 
04:00	44.6	44.6	44.6	76	37.5	0	0	---	0.00	29.903 
04:05	44.5	44.5	44.5	77	37.7	0	0	---	0.00	29.903 
04:10	44.2	44.2	44.2	77	37.5	0	0	---	0.00	29.903 
04:15	43.9	43.9	43.9	78	37.5	0	0	---	0.00	29.901 
04:20	43.6	43.6	43.6	79	37.5	0	0	---	0.00	29.901 
04:25	43.6	43.6	43.6	79	37.5	0	1	315	0.00	29.901 
04:30	43.8	43.8	43.8	79	37.7	0	1	315	0.00	29.891 
04:35	43.8	43.8	43.8	79	37.7	0	0	---	0.00	29.891 
04:40	43.6	43.6	43.6	80	37.8	0	0	---	0.00	29.891 
04:45	43.6	43.6	43.6	80	37.8	0	1	315	0.00	29.888 
04:50	43.8	43.8	43.8	79	37.7	0	0	---	0.00	29.888 
04:55	44.1	44.1	44.1	78	37.7	0	1	315	0.00	29.888 
05:00	44.5	44.5	44.5	77	37.7	0	0	---	0.00	29.887 
05:05	44.8	44.8	44.8	77	38.0	0	1	315	0.00	29.887 
05:10	45.1	45.1	45.1	77	38.3	0	0	---	0.00	29.887 
05:15	45.4	45.4	45.4	77	38.6	0	0	---	0.00	29.890 
05:20	45.5	45.5	45.5	76	38.4	0	0	---	0.00	29.890 
05:25	45.8	45.8	45.8	75	38.3	0	0	---	0.00	29.890 
05:30	46.1	46.1	46.1	73	37.9	0	1	315	0.00	29.878 
05:35	46.4	46.4	46.4	72	37.9	0	1	315	0.00	29.878 
05:40	46.5	46.5	46.5	72	38.0	0	0	---	0.00	29.878 
05:45	46.5	46.5	46.5	71	37.6	0	0	---	0.00	29.878 
05:50	46.5	46.5	46.5	71	37.6	0	1	315	0.00	29.878 
05:55	46.5	46.5	46.5	71	37.6	0	0	---	0.00	29.878 
06:00	46.5	46.5	46.5	71	37.6	0	1	315	0.00	29.875 
06:05	46.5	46.5	46.5	71	37.6	0	0	---	0.00	29.875 
06:10	46.7	46.7	46.7	72	38.2	0	0	---	0.00	29.875 
06:15	46.8	46.8	46.8	71	37.9	0	0	---	0.00	29.878 
06:20	47.0	47.0	47.0	71	38.1	0	0	---	0.00	29.878 
06:25	47.1	47.1	47.1	70	37.8	0	0	---	0.00	29.878 
06:30	47.4	47.4	47.4	69	37.7	0	1	315	0.00	29.875 
06:35	47.7	47.7	47.7	68	37.7	0	1	315	0.00	29.875 
06:40	48.0	48.0	48.0	67	37.6	0	1	315	0.00	29.875 
06:45	48.2	48.2	48.2	66	37.4	0	0	---	0.00	29.869 
06:50	48.3	48.3	48.3	66	37.5	0	0	---	0.00	29.869 
06:55	48.5	48.5	48.5	67	38.0	0	1	315	0.00	29.869 
07:00	48.6	48.6	48.6	66	37.8	0	1	315	0.00	29.861 
07:05	48.6	48.6	48.6	66	37.8	0	0	---	0.00	29.861 
07:10	48.6	48.6	48.6	65	37.4	0	0	---	0.00	29.861 
07:15	48.6	48.6	48.6	65	37.4	0	0	---	0.00	29.866 
07:20	48.6	48.6	48.6	64	37.0	0	1	315	0.00	29.866 
07:25	48.8	48.8	48.8	62	36.4	0	1	315	0.00	29.866 
07:30	48.9	48.9	48.9	62	36.5	0	0	---	0.00	29.862 
07:35	49.2	49.2	49.2	62	36.7	0	0	---	0.00	29.862 
07:40	49.5	49.5	49.5	60	36.2	0	1	315	0.00	29.862 
07:45	49.8	49.8	49.8	59	36.1	0	1	315	0.00	29.852 
07:50	49.9	49.9	49.9	58	35.7	0	1	315	0.00	29.852 
07:55	50.1	50.1	50.1	58	35.9	0	1	315	0.00	29.852 
08:00	50.2	50.2	50.2	57	35.6	0	1	315	0.00	29.850 
08:05	50.4	50.4	50.4	57	35.7	0	0	---	0.00	29.850 
08:10	50.5	50.5	50.5	55	34.9	0	0	---	0.00	29.850 
08:15	50.7	50.7	50.7	56	35.6	0	0	---	0.00	29.853 
08:20	50.8	50.8	50.8	56	35.7	0	1	315	0.00	29.853 
08:25	50.8	50.8	50.8	55	35.2	0	1	315	0.00	29.853 
08:30	51.0	51.0	51.0	56	35.9	0	0	---	0.00	29.852 
08:35	51.0	51.0	51.0	57	36.3	0	0	---	0.00	29.852 
08:40	50.8	50.8	50.8	56	35.7	0	0	---	0.00	29.852 
08:45	51.0	51.0	51.0	56	35.9	0	1	315	0.00	29.852 
08:50	51.0	51.0	51.0	56	35.9	0	0	---	0.00	29.852 
08:55	51.3	51.3	51.3	56	36.1	0	1	315	0.00	29.852 
09:00	51.6	51.6	51.6	56	36.4	0	1	315	0.00	29.850 
09:05	52.0	52.0	52.0	55	36.3	0	1	315	0.00	29.850 
09:10	52.5	52.5	52.5	54	36.3	0	1	315	0.00	29.850 
09:15	53.1	53.1	53.1	54	36.9	0	1	315	0.00	29.849 
09:20	53.5	53.5	53.5	54	37.3	0	1	315	0.00	29.849 
09:25	54.1	54.1	54.1	54	37.8	0	1	315	0.00	29.849 
09:30	54.5	54.5	54.5	54	38.2	0	2	315	0.00	29.845 
09:35	55.1	55.1	55.1	55	39.2	0	1	315	0.00	29.845 
09:40	55.7	55.7	55.7	55	39.8	0	1	315	0.00	29.845 
09:45	56.2	56.2	56.2	56	40.7	0	1	315	0.00	29.835 
09:50	56.6	56.6	56.6	57	41.5	0	1	315	0.00	29.835 
09:55	57.2	57.2	57.2	58	42.6	0	2	315	0.00	29.835 
10:00	58.1	58.1	58.1	59	43.8	1	3	315	0.00	29.831 
10:05	58.9	58.9	58.9	59	44.6	0	1	90	0.00	29.831 
10:10	59.9	59.9	59.9	59	45.5	0	1	90	0.00	29.831 
10:15	60.7	60.7	60.7	58	45.8	1	3	90	0.00	29.828 
10:20	61.0	61.0	61.0	59	46.6	0	2	68	0.00	29.828 
10:25	61.2	61.2	61.2	60	47.2	0	2	68	0.00	29.828 
10:30	61.2	61.2	61.2	61	47.6	0	1	68	0.00	29.818 
10:35	61.3	61.3	61.3	62	48.2	0	2	68	0.00	29.818 
10:40	61.6	61.6	61.6	62	48.4	0	2	68	0.00	29.818 
10:45	62.0	62.0	62.0	62	48.8	1	4	68	0.00	29.813 
10:50	62.6	62.6	62.6	62	49.4	0	2	68	0.00	29.813 
10:55	63.5	63.5	63.5	62	50.2	1	3	68	0.00	29.813 
11:00	64.3	64.3	64.3	62	51.0	1	4	68	0.00	29.811 
11:05	65.0	65.0	65.0	61	51.2	1	5	68	0.00	29.811 
11:10	65.5	65.5	65.5	63	52.6	0	2	270	0.00	29.811 
11:15	66.0	66.0	66.0	62	52.6	0	2	270	0.00	29.808 
11:20	66.3	66.3	66.3	61	52.4	1	4	158	0.00	29.808 
11:25	66.3	66.3	66.3	63	53.3	1	5	90	0.00	29.808 
11:30	66.9	66.9	66.9	64	54.3	1	4	90	0.00	29.793 
11:35	67.6	67.6	67.6	64	55.0	0	2	112	0.00	29.793 
11:40	68.3	68.3	68.3	63	55.2	1	3	112	0.00	29.793 
11:45	68.8	68.8	68.8	63	55.7	1	4	90	0.00	29.782 
11:50	69.3	69.3	69.3	64	56.6	1	5	292	0.00	29.782 
11:55	69.8	69.8	69.8	65	57.5	0	3	270	0.00	29.782 
12:00	70.1	70.1	70.1	64	57.3	1	3	292	0.00	29.775 
12:05	70.4	70.4	70.4	63	57.2	1	6	248	0.00	29.775 
12:10	70.6	70.6	70.6	63	57.4	1	5	248	0.00	29.775 
12:15	70.9	70.9	70.9	65	58.5	1	5	248	0.00	29.777 
12:20	71.3	71.3	71.3	63	58.0	1	4	270	0.00	29.777 
12:25	71.5	71.5	71.5	64	58.7	1	3	270	0.00	29.777 
12:30	71.8	71.8	71.8	62	58.1	1	5	270	0.00	29.774 
12:35	72.1	72.1	72.1	62	58.3	1	4	248	0.00	29.774 
12:40	72.3	72.3	72.3	63	59.0	1	4	0	0.00	29.774 
12:45	72.5	72.5	72.5	62	58.7	1	3	68	0.00	29.770 
12:50	72.5	72.5	72.5	62	58.7	1	5	248	0.00	29.770 
12:55	72.8	72.8	72.8	61	58.6	1	3	248	0.00	29.770 
13:00	73.0	73.0	73.0	60	58.3	1	4	270	0.00	29.762 
13:05	73.2	73.2	73.2	61	58.9	1	3	248	0.00	29.762 
13:10	73.3	73.3	73.3	60	58.6	2	5	270	0.00	29.762 
13:15	73.5	73.5	73.5	59	58.3	1	4	270	0.00	29.754 
13:20	73.5	73.5	73.5	59	58.3	1	4	270	0.00	29.754 
13:25	73.5	73.5	73.5	58	57.8	1	6	248	0.00	29.754 
13:30	73.5	73.5	73.5	57	57.3	2	4	248	0.00	29.745 
13:35	73.3	73.3	73.3	58	57.6	1	5	248	0.00	29.745 
13:40	73.3	73.3	73.3	58	57.6	0	1	248	0.00	29.745 
13:45	73.3	73.3	73.3	59	58.1	0	2	248	0.00	29.738 
13:50	73.3	73.3	73.3	58	57.6	0	2	248	0.00	29.738 
13:55	73.5	73.5	73.5	58	57.8	0	3	248	0.00	29.738 
14:00	73.7	73.7	73.7	58	58.0	1	3	248	0.00	29.732 
14:05	73.9	73.9	73.9	57	57.7	1	6	270	0.00	29.732 
14:10	74.4	74.4	74.4	57	58.2	1	3	270	0.00	29.732 
14:15	74.6	74.6	74.6	56	57.8	0	3	270	0.00	29.719 
14:20	74.2	74.2	74.2	56	57.5	1	2	270	0.00	29.719 
14:25	74.2	74.2	74.2	55	57.0	0	2	270	0.00	29.719 
14:30	74.6	74.6	74.6	55	57.3	1	3	270	0.00	29.715 
14:35	74.7	74.7	74.7	54	56.9	0	2	22	0.00	29.715 
14:40	74.6	74.6	74.6	53	56.3	1	5	248	0.00	29.715 
14:45	74.4	74.4	74.4	54	56.7	0	2	292	0.00	29.706 
14:50	74.4	74.4	74.4	53	56.1	1	4	248	0.00	29.706 
14:55	74.7	74.7	74.7	53	56.4	0	3	292	0.00	29.706 
15:00	75.3	75.3	77.7	51	55.9	1	3	270	0.00	29.703 
15:05	75.6	75.6	77.9	50	55.6	1	3	270	0.00	29.703 
15:10	75.8	75.8	78.0	49	55.3	1	3	292	0.00	29.703 
15:15	75.8	75.8	78.0	49	55.3	1	4	248	0.00	29.702 
15:20	75.8	75.8	78.0	49	55.3	0	4	248	0.00	29.702 
15:25	75.8	75.8	77.9	47	54.1	1	6	270	0.00	29.702 
15:30	76.0	76.0	78.0	47	54.3	2	7	270	0.00	29.695 
15:35	76.1	76.1	78.1	47	54.4	2	7	248	0.00	29.695 
15:40	76.1	76.1	78.1	47	54.4	2	5	248	0.00	29.695 
15:45	76.0	76.0	78.0	48	54.9	1	5	248	0.00	29.691 
15:50	75.6	75.6	77.9	47	53.9	1	9	270	0.00	29.691 
15:55	75.6	75.6	77.9	48	54.5	1	9	270	0.00	29.691 
16:00	75.4	75.4	77.8	48	54.3	1	3	292	0.00	29.689 
16:05	75.4	75.4	77.8	48	54.3	1	4	270	0.00	29.689 
16:10	75.4	75.4	77.8	48	54.3	1	5	90	0.00	29.689 
16:15	75.3	75.3	77.7	49	54.8	0	2	90	0.00	29.689 
16:20	75.1	75.1	77.7	50	55.2	0	4	270	0.00	29.689 
16:25	75.1	75.1	77.7	50	55.2	1	3	248	0.00	29.689 
16:30	74.9	74.9	74.9	50	55.0	0	3	338	0.00	29.689 
16:35	74.9	74.9	74.9	49	54.4	1	4	248	0.00	29.689 
16:40	75.1	75.1	77.7	47	53.5	1	3	135	0.00	29.689 
16:45	75.3	75.3	77.7	46	53.1	1	3	270	0.00	29.688 
16:50	75.3	75.3	77.7	45	52.5	1	4	270	0.00	29.688 
16:55	75.6	75.6	77.8	45	52.7	1	4	248	0.00	29.688 
17:00	75.8	75.8	77.8	43	51.7	1	3	270	0.00	29.690 
17:05	76.0	76.0	77.9	43	51.9	1	4	45	0.00	29.690 
17:10	76.0	76.0	77.9	43	51.9	1	4	248	0.00	29.690 
17:15	76.0	76.0	77.9	42	51.2	0	3	248	0.00	29.687 
17:20	75.8	75.8	77.8	43	51.7	0	1	248	0.00	29.687 
17:25	75.8	75.8	77.8	42	51.1	0	3	248	0.00	29.687 
17:30	75.8	75.8	77.8	42	51.1	1	4	292	0.00	29.686 
17:35	75.8	75.8	77.8	42	51.1	0	2	270	0.00	29.686 
17:40	75.8	75.8	77.7	40	49.7	1	6	270	0.00	29.686 
17:45	75.8	75.8	77.7	39	49.1	1	3	270	0.00	29.683 
17:50	75.8	75.8	77.7	39	49.1	1	3	270	0.00	29.683 
17:55	75.8	75.8	77.7	39	49.1	1	4	270	0.00	29.683 
18:00	75.8	75.8	77.7	39	49.1	0	3	248	0.00	29.678 
18:05	75.4	75.4	77.6	40	49.4	0	2	270	0.00	29.678 
18:10	75.3	75.3	77.6	41	50.0	0	1	270	0.00	29.678 
18:15	74.7	74.7	74.7	42	50.1	0	1	270	0.00	29.671 
18:20	74.4	74.4	74.4	43	50.4	0	2	270	0.00	29.671 
18:25	74.2	74.2	74.2	43	50.2	0	2	270	0.00	29.671 
18:30	74.0	74.0	74.0	47	52.5	0	3	68	0.00	29.658 
18:35	73.3	73.3	73.3	55	56.1	1	5	270	0.01	29.658 
18:40	71.3	71.3	71.3	57	55.3	1	4	248	0.00	29.658 
18:45	70.6	70.6	70.6	56	54.1	0	3	225	0.00	29.658 
18:50	70.6	70.6	70.6	54	53.1	0	2	338	0.00	29.658 
18:55	71.1	71.1	71.1	51	52.0	1	4	248	0.00	29.658 
19:00	71.8	71.8	71.8	49	51.6	1	5	248	0.00	29.689 
19:05	72.5	72.5	72.5	48	51.7	0	3	22	0.00	29.689 
19:10	72.7	72.7	72.7	47	51.3	0	2	338	0.00	29.689 
19:15	72.8	72.8	72.8	47	51.4	0	3	315	0.00	29.705 
19:20	73.0	73.0	73.0	47	51.6	0	1	315	0.00	29.705 
19:25	72.8	72.8	72.8	47	51.4	0	1	315	0.00	29.705 
19:30	72.8	72.8	72.8	47	51.4	0	1	315	0.00	29.711 
19:35	72.8	72.8	72.8	47	51.4	0	1	315	0.00	29.711 
19:40	72.8	72.8	72.8	46	50.8	0	1	315	0.00	29.711 
19:45	72.7	72.7	72.7	47	51.3	0	1	315	0.00	29.719 
19:50	72.5	72.5	72.5	48	51.7	0	1	315	0.00	29.719 
19:55	72.1	72.1	72.1	49	51.9	0	0	---	0.00	29.719 
20:00	71.8	71.8	71.8	50	52.1	0	0	---	0.00	29.734 
20:05	71.6	71.6	71.6	50	52.0	0	0	---	0.00	29.734 
20:10	71.3	71.3	71.3	50	51.7	0	0	---	0.00	29.734 
20:15	71.1	71.1	71.1	51	52.0	0	1	315	0.00	29.731 
20:20	70.9	70.9	70.9	51	51.9	0	1	315	0.00	29.731 
20:25	70.8	70.8	70.8	54	53.3	0	2	315	0.01	29.731 
20:30	70.4	70.4	70.4	55	53.4	1	3	248	0.00	29.743 
20:35	70.1	70.1	70.1	56	53.7	1	3	248	0.00	29.743 
20:40	69.6	69.6	69.6	58	54.2	0	4	315	0.00	29.743 
20:45	69.1	69.1	69.1	57	53.2	0	2	315	0.00	29.721 
20:50	68.9	68.9	68.9	58	53.5	0	2	270	0.00	29.721 
20:55	68.9	68.9	68.9	59	54.0	0	3	22	0.00	29.721 
21:00	68.6	68.6	68.6	59	53.7	0	1	270	0.00	29.721 
21:05	68.4	68.4	68.4	58	53.0	0	1	270	0.00	29.721 
21:10	68.4	68.4	68.4	58	53.0	0	2	270	0.00	29.721 
21:15	68.4	68.4	68.4	58	53.0	0	1	270	0.00	29.727 
21:20	68.3	68.3	68.3	59	53.4	0	1	270	0.01	29.727 
21:25	68.1	68.1	68.1	59	53.2	0	2	270	0.00	29.727 
21:30	68.1	68.1	68.1	58	52.8	0	1	270	0.00	29.720 
21:35	68.1	68.1	68.1	58	52.8	0	1	270	0.00	29.720 
21:40	68.3	68.3	68.3	58	52.9	0	1	270	0.00	29.720 
21:45	68.6	68.6	68.6	57	52.7	0	2	0	0.00	29.718 
21:50	68.8	68.8	68.8	56	52.5	0	1	0	0.00	29.718 
21:55	68.9	68.9	68.9	56	52.5	0	2	45	0.00	29.718 
22:00	69.1	69.1	69.1	54	51.7	0	3	292	0.00	29.724 
22:05	69.6	69.6	69.6	54	52.2	0	4	248	0.00	29.724 
22:10	69.8	69.8	69.8	53	51.9	0	3	248	0.00	29.724 
22:15	69.9	69.9	69.9	53	52.0	0	2	248	0.00	29.723 
22:20	70.1	70.1	70.1	52	51.6	0	3	248	0.00	29.723 
22:25	70.3	70.3	70.3	51	51.3	0	3	248	0.00	29.723 
22:30	70.3	70.3	70.3	52	51.8	0	2	270	0.00	29.725 
22:35	70.3	70.3	70.3	51	51.3	0	2	270	0.00	29.725 
22:40	70.3	70.3	70.3	51	51.3	0	1	270	0.00	29.725 
22:45	70.3	70.3	70.3	51	51.3	0	3	248	0.00	29.729 
22:50	70.1	70.1	70.1	51	51.1	0	1	248	0.00	29.729 
22:55	70.3	70.3	70.3	51	51.3	0	2	248	0.00	29.729 
23:00	70.3	70.3	70.3	51	51.3	0	2	248	0.00	29.725 
23:05	70.3	70.3	70.3	51	51.3	0	3	248	0.00	29.725 
23:10	70.3	70.3	70.3	50	50.8	1	3	248	0.00	29.725 
23:15	70.4	70.4	70.4	50	50.9	0	3	248	0.00	29.721 
23:20	70.4	70.4	70.4	50	50.9	0	2	248	0.00	29.721 
23:25	70.3	70.3	70.3	50	50.8	1	3	270	0.00	29.721 
23:30	70.4	70.4	70.4	50	50.9	1	6	248	0.00	29.723 
23:35	70.4	70.4	70.4	50	50.9	1	3	270	0.00	29.723 
23:40	70.3	70.3	70.3	50	50.8	1	4	292	0.00	29.723 
23:45	70.3	70.3	70.3	49	50.2	1	4	248	0.00	29.722 
23:50	70.3	70.3	70.3	49	50.2	1	4	248	0.00	29.722 
23:55	70.1	70.1	70.1	49	50.0	1	3	248	0.00	29.722 

CoCoRaHS
IN-AL-39
A2 Web Hosting
Creative Commons License
GoDaddy
search engine by freefind advanced

loaded 2018-12-19 10:16:36 • last modified 2010-11-18 10:43:29
Privacy PolicyDisclaimer
• wx.awcolley.com is powered by PmWiki v.2002016 •
• all content (unless otherwise noted) © 2018 A W Colley